Terminal Aerodrome Forecast
Issued by NWS

Home | Current Version | Previous Version | Text Only | Print | Product List | Glossary On
Versions: 1 2 3 4 5 6 7 8 9 10 11 12 13 14 15 16 17 18 19 20 21 22 23 24 25 26 27 28 29 30 31 32 33 34 35 36 37 38 39 40
000
FTUS45 KBOU 241215 AAA
TAFBJC
TAF AMD
KBJC 241215Z 2412/2512 32005KT P6SM SCT008 BKN014
     FM241500 01012G20KT P6SM VCSH SCT008 BKN015 OVC025
      TEMPO 2416/2418 2SM -SHSN
     FM242200 03011KT P6SM VCSH SCT020 BKN035 OVC050
     FM250300 36009KT P6SM SCT020 BKN040 OVC080
     FM250800 22007KT P6SM SCT040 BKN080=

USA.gov is the U.S. government's official web portal to all federal, state and local government web resources and services.